Waverunner — ZCTE7 — position and weather

sailwx.info

Track history (hours):
 
Tides and Currents Weather Stations Pressure Air Temp Water Temp Dewpoint Dewpoint Depression Visibility Wind Speed Wind Dir Waves Ship Positions

Waverunner

Last reported at 2014-Sep-21 03:22 UTC. Time now 2014-Sep-21 04:06 UTC.
Position N 43°34' E 007°06'.

Length 41 m; draft 2 m.

MMSI: 319804000.

Date/timePositionNaut miles runAvg speedWind from/ knotsBaromVisibWave heightAir tempDewpointWater temp
2014-Sep-21 03:22N 43°34' E 007°06'0 0.0
2014-Sep-21 02:17N 43°34' E 007°06'0 0.0
2014-Sep-21 01:17N 43°34' E 007°06'0 0.0
2014-Sep-21 00:30N 43°34' E 007°06'0 0.0
2014-Sep-20 23:30N 43°34' E 007°06'0 0.0
2014-Sep-20 22:31N 43°34' E 007°06'0 0.0
2014-Sep-20 21:32N 43°34' E 007°06'0 0.0
2014-Sep-20 20:32N 43°34' E 007°06'7 7.0
2014-Sep-20 19:33N 43°36' E 007°15'7 6.3
2014-Sep-20 18:29N 43°41' E 007°21'0 0.0
2014-Sep-20 17:17N 43°41' E 007°21'0 0.0
2014-Sep-20 16:30N 43°41' E 007°21'0 0.0
2014-Sep-20 15:31N 43°41' E 007°21'0 0.0
2014-Sep-20 14:25N 43°41' E 007°21'0 0.0
2014-Sep-20 13:32N 43°41' E 007°21'0 0.0
2014-Sep-20 12:33N 43°41' E 007°21'0 0.0
2014-Sep-20 11:33N 43°41' E 007°21'0 0.0
2014-Sep-20 10:28N 43°41' E 007°21'0 0.0
2014-Sep-20 09:23N 43°41' E 007°21'0 0.1
2014-Sep-20 08:33N 43°41' E 007°21'1211.6
2014-Sep-20 07:33N 43°33' E 007°10'3 2.5
2014-Sep-20 06:29N 43°34' E 007°06'0 0.0
2014-Sep-20 05:30N 43°34' E 007°06'0 0.0
2014-Sep-20 04:31N 43°34' E 007°06'0 0.0
2014-Sep-20 03:31N 43°34' E 007°06'0 0.0
2014-Sep-20 02:32N 43°34' E 007°06'0 0.0
2014-Sep-20 01:33N 43°34' E 007°06'0 0.0
2014-Sep-20 00:27N 43°34' E 007°06'0 0.0
2014-Sep-19 23:28N 43°34' E 007°06'0 0.0
2014-Sep-19 22:29N 43°34' E 007°06'0 0.0
2014-Sep-19 21:29N 43°34' E 007°06'0 0.0
2014-Sep-19 20:33N 43°34' E 007°06'0 0.0
2014-Sep-19 19:31N 43°34' E 007°06'0 0.0
2014-Sep-19 18:31N 43°34' E 007°06'0 0.0
2014-Sep-19 17:32N 43°34' E 007°06'0 0.0
2014-Sep-19 16:27N 43°34' E 007°06'0 0.0
2014-Sep-19 15:33N 43°34' E 007°06'0 0.0
2014-Sep-19 14:28N 43°34' E 007°06'0 0.0
2014-Sep-19 13:29N 43°34' E 007°06'0 0.0
2014-Sep-19 12:29N 43°34' E 007°06'1 1.1
2014-Sep-19 11:27N 43°34' E 007°05'0 0.0
2014-Sep-19 10:33N 43°34' E 007°05'0 0.0
2014-Sep-19 09:28N 43°34' E 007°05'0 0.0
2014-Sep-19 08:29N 43°34' E 007°05'0 0.0
2014-Sep-19 07:29N 43°34' E 007°05'0 0.0
2014-Sep-19 04:31N 43°34' E 007°05'0 0.0
2014-Sep-19 03:32N 43°34' E 007°05'0 0.0
2014-Sep-19 02:33N 43°34' E 007°05'0 0.0
2014-Sep-18 20:07N 43°34' E 007°05'0 0.0
2014-Sep-18 19:14N 43°34' E 007°05'0 0.0
2014-Sep-18 18:32N 43°34' E 007°05'0 0.0
2014-Sep-18 17:33N 43°34' E 007°05'0 0.0
2014-Sep-18 16:33N 43°34' E 007°05'0 0.0
2014-Sep-18 15:28N 43°34' E 007°05'0 0.0
2014-Sep-18 14:23N 43°34' E 007°05'0 0.0
2014-Sep-18 13:12N 43°34' E 007°05'0 0.0
2014-Sep-18 12:24N 43°34' E 007°05'0 0.0
2014-Sep-18 11:31N 43°34' E 007°05'0 0.0
2014-Sep-18 10:20N 43°34' E 007°05'0 0.0
2014-Sep-18 09:32N 43°34' E 007°05'0 0.0
2014-Sep-18 08:27N 43°34' E 007°05'0 0.0
2014-Sep-18 07:27N 43°34' E 007°05'0 0.0
2014-Sep-18 06:28N 43°34' E 007°05'0 0.0
2014-Sep-18 05:29N 43°34' E 007°05'0 0.0
2014-Sep-18 04:29N 43°34' E 007°05'0 0.0
2014-Sep-18 03:30N 43°34' E 007°05'0 0.0
2014-Sep-18 02:31N 43°34' E 007°05'0 0.0
2014-Sep-18 01:31N 43°34' E 007°05'0 0.0
2014-Sep-18 00:32N 43°34' E 007°05'0 0.0
2014-Sep-17 23:33N 43°34' E 007°05'0 0.0
2014-Sep-17 22:33N 43°34' E 007°05'0 0.0
2014-Sep-17 21:28N 43°34' E 007°05'0 0.0
2014-Sep-17 20:29N 43°34' E 007°05'0 0.0
2014-Sep-17 19:29N 43°34' E 007°05'0 0.0
2014-Sep-17 18:30N 43°34' E 007°05'0 0.0
2014-Sep-17 17:31N 43°34' E 007°05'0 0.0
2014-Sep-17 16:31N 43°34' E 007°05'0 0.0
2014-Sep-17 15:26N 43°34' E 007°05'0 0.0
2014-Sep-17 14:33N 43°34' E 007°05'0 0.0
2014-Sep-17 13:33N 43°34' E 007°05'0 0.0
2014-Sep-17 12:28N 43°34' E 007°05'0 0.0
2014-Sep-17 11:29N 43°34' E 007°05'0 0.0
2014-Sep-17 10:30N 43°34' E 007°05'0 0.0
2014-Sep-17 09:33N 43°34' E 007°05'3 3.1
2014-Sep-17 08:30N 43°31' E 007°03'0 0.0
2014-Sep-17 07:33N 43°31' E 007°03'0 0.0
2014-Sep-17 06:31N 43°31' E 007°03'0 0.0
2014-Sep-17 05:31N 43°31' E 007°03'0 0.0
2014-Sep-17 04:20N 43°31' E 007°03'0 0.0
2014-Sep-17 02:28N 43°31' E 007°03'0 0.0
2014-Sep-17 01:16N 43°31' E 007°03'0 0.0
2014-Sep-17 00:29N 43°31' E 007°03'0 0.0
2014-Sep-16 23:30N 43°31' E 007°03'0 0.0
2014-Sep-16 22:30N 43°31' E 007°03'0 0.0
2014-Sep-16 21:19N 43°31' E 007°03'7 8.6
2014-Sep-16 20:33N 43°34' E 007°11'1312.6
2014-Sep-16 19:33N 43°42' E 007°24'4 1.8
2014-Sep-16 17:26N 43°45' E 007°28'3 1.1
2014-Sep-16 14:30N 43°43' E 007°25'3 3.0
2014-Sep-16 13:22N 43°41' E 007°21'0 0.0
2014-Sep-16 12:29N 43°41' E 007°21'0 0.0
2014-Sep-16 11:29N 43°41' E 007°21'0 0.0
2014-Sep-16 10:12N 43°41' E 007°21'0 0.0
2014-Sep-16 09:31N 43°41' E 007°21'0 0.0
2014-Sep-16 08:31N 43°41' E 007°21'0 0.0
2014-Sep-16 07:32N 43°41' E 007°21'0 0.0
2014-Sep-16 06:33N 43°41' E 007°21'0 0.0
2014-Sep-16 05:21N 43°41' E 007°21'0 0.0
2014-Sep-16 04:28N 43°41' E 007°21'0 0.0
2014-Sep-16 03:23N 43°41' E 007°21'0 0.0
2014-Sep-16 02:29N 43°41' E 007°21'0 0.0
2014-Sep-16 01:30N 43°41' E 007°21'0 0.0
2014-Sep-16 00:31N 43°41' E 007°21'0 0.0
2014-Sep-15 23:19N 43°41' E 007°21'0 0.0
2014-Sep-15 22:32N 43°41' E 007°21'0 0.0
2014-Sep-15 21:33N 43°41' E 007°21'0 0.0
2014-Sep-15 20:27N 43°41' E 007°21'0 0.0
2014-Sep-15 19:28N 43°41' E 007°21'0 0.0
2014-Sep-15 18:17N 43°41' E 007°21'0 0.0
2014-Sep-15 17:29N 43°41' E 007°21'0 0.0
2014-Sep-15 15:31N 43°41' E 007°21'1112.0
2014-Sep-15 14:33N 43°33' E 007°10'1414.4
2014-Sep-15 13:33N 43°23' E 006°56'1414.3
2014-Sep-15 12:33N 43°13' E 006°42'1413.8
2014-Sep-15 11:33N 43°06' E 006°26'5 4.2
2014-Sep-15 10:19N 43°06' E 006°18'0 0.0
2014-Sep-15 09:25N 43°06' E 006°18'0 0.0
2014-Sep-15 08:29N 43°06' E 006°18'0 0.0
2014-Sep-15 07:33N 43°06' E 006°18'4 4.3
2014-Sep-15 06:33N 43°05' E 006°24'1514.9
2014-Sep-15 05:33N 43°13' E 006°42'5 5.2
2014-Sep-15 04:33N 43°16' E 006°37'0 0.0
2014-Sep-15 03:31N 43°16' E 006°37'0 0.0
2014-Sep-15 02:31N 43°16' E 006°37'0 0.0
2014-Sep-15 01:32N 43°16' E 006°37'0 0.0
2014-Sep-15 00:27N 43°16' E 006°37'0 0.0
2014-Sep-14 23:33N 43°16' E 006°37'0 0.0
2014-Sep-14 22:31N 43°16' E 006°37'0 0.0
2014-Sep-14 21:32N 43°16' E 006°37'0 0.0
2014-Sep-14 20:32N 43°16' E 006°37'0 0.0
2014-Sep-14 19:30N 43°16' E 006°37'0 0.0
2014-Sep-14 18:31N 43°16' E 006°37'1010.6
2014-Sep-14 17:33N 43°22' E 006°49'1413.7
2014-Sep-14 16:32N 43°31' E 007°04'0 0.0
2014-Sep-14 15:16N 43°31' E 007°04'0 0.0
2014-Sep-14 14:10N 43°31' E 007°04'0 0.0
2014-Sep-14 13:23N 43°31' E 007°04'3 3.6
2014-Sep-14 12:30N 43°34' E 007°05'0 0.0
2014-Sep-14 11:31N 43°34' E 007°05'0 0.0
2014-Sep-14 10:31N 43°34' E 007°05'0 0.0
2014-Sep-14 09:32N 43°34' E 007°05'0 0.0
2014-Sep-14 08:33N 43°34' E 007°05'0 0.0
2014-Sep-14 07:33N 43°34' E 007°05'0 0.0
2014-Sep-14 06:28N 43°34' E 007°05'0 0.0
2014-Sep-14 05:29N 43°34' E 007°05'0 0.0
2014-Sep-14 04:29N 43°34' E 007°05'0 0.0
2014-Sep-14 03:30N 43°34' E 007°05'0 0.0
2014-Sep-14 02:25N 43°34' E 007°05'0 0.0
2014-Sep-14 01:31N 43°34' E 007°05'0 0.0
2014-Sep-13 21:28N 43°34' E 007°05'0 0.0
2014-Sep-13 20:29N 43°34' E 007°05'0 0.0
2014-Sep-13 19:29N 43°34' E 007°05'0 0.0
2014-Sep-13 18:30N 43°34' E 007°05'0 0.0
2014-Sep-13 17:31N 43°34' E 007°05'0 0.0
2014-Sep-13 16:31N 43°34' E 007°05'0 0.0
2014-Sep-13 15:32N 43°34' E 007°05'0 0.0
2014-Sep-13 14:33N 43°34' E 007°05'0 0.0
2014-Sep-13 13:33N 43°34' E 007°05'0 0.0
2014-Sep-13 12:28N 43°34' E 007°05'0 0.0
2014-Sep-13 11:29N 43°34' E 007°05'0 0.0
2014-Sep-13 10:29N 43°34' E 007°05'0 0.0
2014-Sep-13 09:30N 43°34' E 007°05'0 0.0
2014-Sep-13 08:31N 43°34' E 007°05'0 0.0
2014-Sep-13 07:31N 43°34' E 007°05'0 0.0
2014-Sep-13 06:32N 43°34' E 007°05'0 0.0
2014-Sep-13 05:33N 43°34' E 007°05'0 0.0
2014-Sep-13 04:33N 43°34' E 007°05'0 0.0
2014-Sep-13 03:28N 43°34' E 007°05'0 0.0
2014-Sep-13 02:29N 43°34' E 007°05'0 0.0
2014-Sep-13 01:29N 43°34' E 007°05'0 0.0
2014-Sep-13 00:30N 43°34' E 007°05'0 0.0
2014-Sep-12 23:31N 43°34' E 007°05'0 0.0
2014-Sep-12 22:31N 43°34' E 007°05'0 0.0
2014-Sep-12 21:14N 43°34' E 007°05'0 0.0
2014-Sep-12 20:33N 43°34' E 007°05'0 0.0
2014-Sep-12 19:16N 43°34' E 007°05'0 0.0
2014-Sep-12 18:22N 43°34' E 007°05'0 0.0
2014-Sep-12 17:29N 43°34' E 007°05'0 0.0
2014-Sep-12 16:29N 43°34' E 007°05'0 0.0
2014-Sep-12 15:24N 43°34' E 007°05'0 0.0
2014-Sep-12 14:25N 43°34' E 007°05'0 0.0
2014-Sep-12 13:31N 43°34' E 007°05'0 0.0
2014-Sep-12 12:32N 43°34' E 007°05'0 0.0
2014-Sep-12 11:33N 43°34' E 007°05'0 0.0
2014-Sep-12 10:33N 43°34' E 007°05'0 0.0
2014-Sep-12 09:28N 43°34' E 007°05'0 0.0
2014-Sep-12 08:29N 43°34' E 007°05'0 0.0
2014-Sep-12 07:29N 43°34' E 007°05'0 0.0
2014-Sep-12 06:18N 43°34' E 007°05'0 0.0
2014-Sep-12 05:31N 43°34' E 007°05'0 0.0
2014-Sep-12 02:33N 43°34' E 007°05'0 0.0
2014-Sep-12 01:33N 43°34' E 007°05'0 0.0
2014-Sep-12 00:28N 43°34' E 007°05'0 0.0
2014-Sep-11 22:29N 43°34' E 007°05'0 0.0
2014-Sep-11 21:30N 43°34' E 007°05'0 0.0
2014-Sep-11 20:31N 43°34' E 007°05'0 0.0
2014-Sep-11 19:31N 43°34' E 007°05'0 0.0
2014-Sep-11 18:32N 43°34' E 007°05'0 0.0
2014-Sep-11 17:33N 43°34' E 007°05'0 0.0
2014-Sep-11 16:33N 43°34' E 007°05'0 0.0
2014-Sep-11 15:28N 43°34' E 007°05'0 0.0
2014-Sep-11 14:29N 43°34' E 007°05'0 0.0
2014-Sep-11 13:23N 43°34' E 007°05'0 0.0
2014-Sep-11 12:30N 43°34' E 007°05'0 0.0
2014-Sep-11 10:20N 43°34' E 007°05'0 0.0
2014-Sep-11 08:33N 43°34' E 007°05'0 0.0
2014-Sep-11 07:10N 43°34' E 007°05'0 0.0
2014-Sep-11 06:28N 43°34' E 007°05'0 0.0
2014-Sep-11 05:29N 43°34' E 007°05'  
Track history (hours):
 
Tides and Currents Weather Stations Pressure Air Temp Water Temp Dewpoint Dewpoint Depression Visibility Wind Speed Wind Dir Waves Ship Positions

Waverunner

Last reported at 2014-Sep-21 03:22 UTC. Time now 2014-Sep-21 04:06 UTC.
Position N 43°34' E 007°06'.

Length 41 m; draft 2 m.

MMSI: 319804000.

Date/timePositionNaut miles runAvg speedWind from/ knotsBaromVisibWave heightAir tempDewpointWater temp
2014-Sep-21 03:22N 43°34' E 007°06'0 0.0
2014-Sep-21 02:17N 43°34' E 007°06'0 0.0
2014-Sep-21 01:17N 43°34' E 007°06'0 0.0
2014-Sep-21 00:30N 43°34' E 007°06'0 0.0
2014-Sep-20 23:30N 43°34' E 007°06'0 0.0
2014-Sep-20 22:31N 43°34' E 007°06'0 0.0
2014-Sep-20 21:32N 43°34' E 007°06'0 0.0
2014-Sep-20 20:32N 43°34' E 007°06'7 7.0
2014-Sep-20 19:33N 43°36' E 007°15'7 6.3
2014-Sep-20 18:29N 43°41' E 007°21'0 0.0
2014-Sep-20 17:17N 43°41' E 007°21'0 0.0
2014-Sep-20 16:30N 43°41' E 007°21'0 0.0
2014-Sep-20 15:31N 43°41' E 007°21'0 0.0
2014-Sep-20 14:25N 43°41' E 007°21'0 0.0
2014-Sep-20 13:32N 43°41' E 007°21'0 0.0
2014-Sep-20 12:33N 43°41' E 007°21'0 0.0
2014-Sep-20 11:33N 43°41' E 007°21'0 0.0
2014-Sep-20 10:28N 43°41' E 007°21'0 0.0
2014-Sep-20 09:23N 43°41' E 007°21'0 0.1
2014-Sep-20 08:33N 43°41' E 007°21'1211.6
2014-Sep-20 07:33N 43°33' E 007°10'3 2.5
2014-Sep-20 06:29N 43°34' E 007°06'0 0.0
2014-Sep-20 05:30N 43°34' E 007°06'0 0.0
2014-Sep-20 04:31N 43°34' E 007°06'0 0.0
2014-Sep-20 03:31N 43°34' E 007°06'0 0.0
2014-Sep-20 02:32N 43°34' E 007°06'0 0.0
2014-Sep-20 01:33N 43°34' E 007°06'0 0.0
2014-Sep-20 00:27N 43°34' E 007°06'0 0.0
2014-Sep-19 23:28N 43°34' E 007°06'0 0.0
2014-Sep-19 22:29N 43°34' E 007°06'0 0.0
2014-Sep-19 21:29N 43°34' E 007°06'0 0.0
2014-Sep-19 20:33N 43°34' E 007°06'0 0.0
2014-Sep-19 19:31N 43°34' E 007°06'0 0.0
2014-Sep-19 18:31N 43°34' E 007°06'0 0.0
2014-Sep-19 17:32N 43°34' E 007°06'0 0.0
2014-Sep-19 16:27N 43°34' E 007°06'0 0.0
2014-Sep-19 15:33N 43°34' E 007°06'0 0.0
2014-Sep-19 14:28N 43°34' E 007°06'0 0.0
2014-Sep-19 13:29N 43°34' E 007°06'0 0.0
2014-Sep-19 12:29N 43°34' E 007°06'1 1.1
2014-Sep-19 11:27N 43°34' E 007°05'0 0.0
2014-Sep-19 10:33N 43°34' E 007°05'0 0.0
2014-Sep-19 09:28N 43°34' E 007°05'0 0.0
2014-Sep-19 08:29N 43°34' E 007°05'0 0.0
2014-Sep-19 07:29N 43°34' E 007°05'0 0.0
2014-Sep-19 04:31N 43°34' E 007°05'0 0.0
2014-Sep-19 03:32N 43°34' E 007°05'0 0.0
2014-Sep-19 02:33N 43°34' E 007°05'0 0.0
2014-Sep-18 20:07N 43°34' E 007°05'0 0.0
2014-Sep-18 19:14N 43°34' E 007°05'0 0.0
2014-Sep-18 18:32N 43°34' E 007°05'0 0.0
2014-Sep-18 17:33N 43°34' E 007°05'0 0.0
2014-Sep-18 16:33N 43°34' E 007°05'0 0.0
2014-Sep-18 15:28N 43°34' E 007°05'0 0.0
2014-Sep-18 14:23N 43°34' E 007°05'0 0.0
2014-Sep-18 13:12N 43°34' E 007°05'0 0.0
2014-Sep-18 12:24N 43°34' E 007°05'0 0.0
2014-Sep-18 11:31N 43°34' E 007°05'0 0.0
2014-Sep-18 10:20N 43°34' E 007°05'0 0.0
2014-Sep-18 09:32N 43°34' E 007°05'0 0.0
2014-Sep-18 08:27N 43°34' E 007°05'0 0.0
2014-Sep-18 07:27N 43°34' E 007°05'0 0.0
2014-Sep-18 06:28N 43°34' E 007°05'0 0.0
2014-Sep-18 05:29N 43°34' E 007°05'0 0.0
2014-Sep-18 04:29N 43°34' E 007°05'0 0.0
2014-Sep-18 03:30N 43°34' E 007°05'0 0.0
2014-Sep-18 02:31N 43°34' E 007°05'0 0.0
2014-Sep-18 01:31N 43°34' E 007°05'0 0.0
2014-Sep-18 00:32N 43°34' E 007°05'0 0.0
2014-Sep-17 23:33N 43°34' E 007°05'0 0.0
2014-Sep-17 22:33N 43°34' E 007°05'0 0.0
2014-Sep-17 21:28N 43°34' E 007°05'0 0.0
2014-Sep-17 20:29N 43°34' E 007°05'0 0.0
2014-Sep-17 19:29N 43°34' E 007°05'0 0.0
2014-Sep-17 18:30N 43°34' E 007°05'0 0.0
2014-Sep-17 17:31N 43°34' E 007°05'0 0.0
2014-Sep-17 16:31N 43°34' E 007°05'0 0.0
2014-Sep-17 15:26N 43°34' E 007°05'0 0.0
2014-Sep-17 14:33N 43°34' E 007°05'0 0.0
2014-Sep-17 13:33N 43°34' E 007°05'0 0.0
2014-Sep-17 12:28N 43°34' E 007°05'0 0.0
2014-Sep-17 11:29N 43°34' E 007°05'0 0.0
2014-Sep-17 10:30N 43°34' E 007°05'0 0.0
2014-Sep-17 09:33N 43°34' E 007°05'3 3.1
2014-Sep-17 08:30N 43°31' E 007°03'0 0.0
2014-Sep-17 07:33N 43°31' E 007°03'0 0.0
2014-Sep-17 06:31N 43°31' E 007°03'0 0.0
2014-Sep-17 05:31N 43°31' E 007°03'0 0.0
2014-Sep-17 04:20N 43°31' E 007°03'0 0.0
2014-Sep-17 02:28N 43°31' E 007°03'0 0.0
2014-Sep-17 01:16N 43°31' E 007°03'0 0.0
2014-Sep-17 00:29N 43°31' E 007°03'0 0.0
2014-Sep-16 23:30N 43°31' E 007°03'0 0.0
2014-Sep-16 22:30N 43°31' E 007°03'0 0.0
2014-Sep-16 21:19N 43°31' E 007°03'7 8.6
2014-Sep-16 20:33N 43°34' E 007°11'1312.6
2014-Sep-16 19:33N 43°42' E 007°24'4 1.8
2014-Sep-16 17:26N 43°45' E 007°28'3 1.1
2014-Sep-16 14:30N 43°43' E 007°25'3 3.0
2014-Sep-16 13:22N 43°41' E 007°21'0 0.0
2014-Sep-16 12:29N 43°41' E 007°21'0 0.0
2014-Sep-16 11:29N 43°41' E 007°21'0 0.0
2014-Sep-16 10:12N 43°41' E 007°21'0 0.0
2014-Sep-16 09:31N 43°41' E 007°21'0 0.0
2014-Sep-16 08:31N 43°41' E 007°21'0 0.0
2014-Sep-16 07:32N 43°41' E 007°21'0 0.0
2014-Sep-16 06:33N 43°41' E 007°21'0 0.0
2014-Sep-16 05:21N 43°41' E 007°21'0 0.0
2014-Sep-16 04:28N 43°41' E 007°21'0 0.0
2014-Sep-16 03:23N 43°41' E 007°21'0 0.0
2014-Sep-16 02:29N 43°41' E 007°21'0 0.0
2014-Sep-16 01:30N 43°41' E 007°21'0 0.0
2014-Sep-16 00:31N 43°41' E 007°21'0 0.0
2014-Sep-15 23:19N 43°41' E 007°21'0 0.0
2014-Sep-15 22:32N 43°41' E 007°21'0 0.0
2014-Sep-15 21:33N 43°41' E 007°21'0 0.0
2014-Sep-15 20:27N 43°41' E 007°21'0 0.0
2014-Sep-15 19:28N 43°41' E 007°21'0 0.0
2014-Sep-15 18:17N 43°41' E 007°21'0 0.0
2014-Sep-15 17:29N 43°41' E 007°21'0 0.0
2014-Sep-15 15:31N 43°41' E 007°21'1112.0
2014-Sep-15 14:33N 43°33' E 007°10'1414.4
2014-Sep-15 13:33N 43°23' E 006°56'1414.3
2014-Sep-15 12:33N 43°13' E 006°42'1413.8
2014-Sep-15 11:33N 43°06' E 006°26'5 4.2
2014-Sep-15 10:19N 43°06' E 006°18'0 0.0
2014-Sep-15 09:25N 43°06' E 006°18'0 0.0
2014-Sep-15 08:29N 43°06' E 006°18'0 0.0
2014-Sep-15 07:33N 43°06' E 006°18'4 4.3
2014-Sep-15 06:33N 43°05' E 006°24'1514.9
2014-Sep-15 05:33N 43°13' E 006°42'5 5.2
2014-Sep-15 04:33N 43°16' E 006°37'0 0.0
2014-Sep-15 03:31N 43°16' E 006°37'0 0.0
2014-Sep-15 02:31N 43°16' E 006°37'0 0.0
2014-Sep-15 01:32N 43°16' E 006°37'0 0.0
2014-Sep-15 00:27N 43°16' E 006°37'0 0.0
2014-Sep-14 23:33N 43°16' E 006°37'0 0.0
2014-Sep-14 22:31N 43°16' E 006°37'0 0.0
2014-Sep-14 21:32N 43°16' E 006°37'0 0.0
2014-Sep-14 20:32N 43°16' E 006°37'0 0.0
2014-Sep-14 19:30N 43°16' E 006°37'0 0.0
2014-Sep-14 18:31N 43°16' E 006°37'1010.6
2014-Sep-14 17:33N 43°22' E 006°49'1413.7
2014-Sep-14 16:32N 43°31' E 007°04'0 0.0
2014-Sep-14 15:16N 43°31' E 007°04'0 0.0
2014-Sep-14 14:10N 43°31' E 007°04'0 0.0
2014-Sep-14 13:23N 43°31' E 007°04'3 3.6
2014-Sep-14 12:30N 43°34' E 007°05'0 0.0
2014-Sep-14 11:31N 43°34' E 007°05'0 0.0
2014-Sep-14 10:31N 43°34' E 007°05'0 0.0
2014-Sep-14 09:32N 43°34' E 007°05'0 0.0
2014-Sep-14 08:33N 43°34' E 007°05'0 0.0
2014-Sep-14 07:33N 43°34' E 007°05'0 0.0
2014-Sep-14 06:28N 43°34' E 007°05'0 0.0
2014-Sep-14 05:29N 43°34' E 007°05'0 0.0
2014-Sep-14 04:29N 43°34' E 007°05'0 0.0
2014-Sep-14 03:30N 43°34' E 007°05'0 0.0
2014-Sep-14 02:25N 43°34' E 007°05'0 0.0
2014-Sep-14 01:31N 43°34' E 007°05'0 0.0
2014-Sep-13 21:28N 43°34' E 007°05'0 0.0
2014-Sep-13 20:29N 43°34' E 007°05'0 0.0
2014-Sep-13 19:29N 43°34' E 007°05'0 0.0
2014-Sep-13 18:30N 43°34' E 007°05'0 0.0
2014-Sep-13 17:31N 43°34' E 007°05'0 0.0
2014-Sep-13 16:31N 43°34' E 007°05'0 0.0
2014-Sep-13 15:32N 43°34' E 007°05'0 0.0
2014-Sep-13 14:33N 43°34' E 007°05'0 0.0
2014-Sep-13 13:33N 43°34' E 007°05'0 0.0
2014-Sep-13 12:28N 43°34' E 007°05'0 0.0
2014-Sep-13 11:29N 43°34' E 007°05'0 0.0
2014-Sep-13 10:29N 43°34' E 007°05'0 0.0
2014-Sep-13 09:30N 43°34' E 007°05'0 0.0
2014-Sep-13 08:31N 43°34' E 007°05'0 0.0
2014-Sep-13 07:31N 43°34' E 007°05'0 0.0
2014-Sep-13 06:32N 43°34' E 007°05'0 0.0
2014-Sep-13 05:33N 43°34' E 007°05'0 0.0
2014-Sep-13 04:33N 43°34' E 007°05'0 0.0
2014-Sep-13 03:28N 43°34' E 007°05'0 0.0
2014-Sep-13 02:29N 43°34' E 007°05'0 0.0
2014-Sep-13 01:29N 43°34' E 007°05'0 0.0
2014-Sep-13 00:30N 43°34' E 007°05'0 0.0
2014-Sep-12 23:31N 43°34' E 007°05'0 0.0
2014-Sep-12 22:31N 43°34' E 007°05'0 0.0
2014-Sep-12 21:14N 43°34' E 007°05'0 0.0
2014-Sep-12 20:33N 43°34' E 007°05'0 0.0
2014-Sep-12 19:16N 43°34' E 007°05'0 0.0
2014-Sep-12 18:22N 43°34' E 007°05'0 0.0
2014-Sep-12 17:29N 43°34' E 007°05'0 0.0
2014-Sep-12 16:29N 43°34' E 007°05'0 0.0
2014-Sep-12 15:24N 43°34' E 007°05'0 0.0
2014-Sep-12 14:25N 43°34' E 007°05'0 0.0
2014-Sep-12 13:31N 43°34' E 007°05'0 0.0
2014-Sep-12 12:32N 43°34' E 007°05'0 0.0
2014-Sep-12 11:33N 43°34' E 007°05'0 0.0
2014-Sep-12 10:33N 43°34' E 007°05'0 0.0
2014-Sep-12 09:28N 43°34' E 007°05'0 0.0
2014-Sep-12 08:29N 43°34' E 007°05'0 0.0
2014-Sep-12 07:29N 43°34' E 007°05'0 0.0
2014-Sep-12 06:18N 43°34' E 007°05'0 0.0
2014-Sep-12 05:31N 43°34' E 007°05'0 0.0
2014-Sep-12 02:33N 43°34' E 007°05'0 0.0
2014-Sep-12 01:33N 43°34' E 007°05'0 0.0
2014-Sep-12 00:28N 43°34' E 007°05'0 0.0
2014-Sep-11 22:29N 43°34' E 007°05'0 0.0
2014-Sep-11 21:30N 43°34' E 007°05'0 0.0
2014-Sep-11 20:31N 43°34' E 007°05'0 0.0
2014-Sep-11 19:31N 43°34' E 007°05'0 0.0
2014-Sep-11 18:32N 43°34' E 007°05'0 0.0
2014-Sep-11 17:33N 43°34' E 007°05'0 0.0
2014-Sep-11 16:33N 43°34' E 007°05'0 0.0
2014-Sep-11 15:28N 43°34' E 007°05'0 0.0
2014-Sep-11 14:29N 43°34' E 007°05'0 0.0
2014-Sep-11 13:23N 43°34' E 007°05'0 0.0
2014-Sep-11 12:30N 43°34' E 007°05'0 0.0
2014-Sep-11 10:20N 43°34' E 007°05'0 0.0
2014-Sep-11 08:33N 43°34' E 007°05'0 0.0
2014-Sep-11 07:10N 43°34' E 007°05'0 0.0
2014-Sep-11 06:28N 43°34' E 007°05'0 0.0
2014-Sep-11 05:29N 43°34' E 007°05'  

Dump ship's entire track history